Time;durP1;ratioP1;P1;durP2;ratioP2;P2;SDS_P1;SDS_P2;PMS_P1;PMS_P2;Temp;Humidity;BMP_temperature;BMP_pressure;BME280_temperature;BME280_humidity;BME280_pressure;Samples;Min_cycle;Max_cycle;Signal;HPM_P1;HPM_P2
2021/05/28 00:02:03;;;;;;;11.07;3.00;;;;;;;12.47;66.36;100426.22;4994403;28;20054;-83
2021/05/28 00:04:30;;;;;;;6.88;2.92;;;;;;;12.42;66.39;100428.25;4976767;28;20101;-83
2021/05/28 00:06:57;;;;;;;12.15;3.47;;;;;;;12.37;66.34;100423.19;4995403;28;20112;-83
2021/05/28 00:09:24;;;;;;;6.30;2.95;;;;;;;12.33;66.50;100421.66;4994616;28;20054;-82
2021/05/28 00:11:52;;;;;;;7.15;2.45;;;;;;;12.30;66.55;100435.88;4992701;28;20492;-82
2021/05/28 00:14:19;;;;;;;8.10;2.80;;;;;;;12.25;66.63;100430.88;4993725;28;20054;-82
2021/05/28 00:16:45;;;;;;;8.05;2.97;;;;;;;12.22;66.50;100432.78;4993825;28;20054;-82
2021/05/28 00:19:12;;;;;;;4.80;2.60;;;;;;;12.18;66.60;100437.41;4993918;28;20046;-82
2021/05/28 00:21:39;;;;;;;8.30;2.78;;;;;;;12.15;66.69;100434.06;4993543;28;20061;-82
2021/05/28 00:24:06;;;;;;;8.95;3.33;;;;;;;12.11;66.73;100441.28;4993627;28;20054;-82
2021/05/28 00:26:33;;;;;;;7.40;2.65;;;;;;;12.06;66.86;100438.91;4993975;28;20104;-82
2021/05/28 00:28:59;;;;;;;6.30;2.55;;;;;;;12.03;66.76;100441.66;4993635;28;20098;-82
2021/05/28 00:31:26;;;;;;;9.10;2.78;;;;;;;11.99;67.04;100445.38;4994340;28;20069;-82
2021/05/28 00:33:53;;;;;;;9.48;3.15;;;;;;;11.96;66.81;100448.22;4995206;28;20050;-82
2021/05/28 00:36:19;;;;;;;12.68;3.35;;;;;;;11.93;66.85;100445.72;4993440;28;20093;-83
2021/05/28 00:38:46;;;;;;;6.85;2.60;;;;;;;11.90;67.08;100448.50;4993245;28;20096;-82
2021/05/28 00:41:15;;;;;;;6.00;2.65;;;;;;;11.88;67.04;100455.66;4993018;28;20058;-83
2021/05/28 00:43:42;;;;;;;8.38;3.08;;;;;;;11.83;67.16;100454.09;4993330;28;20073;-81
2021/05/28 00:46:09;;;;;;;11.32;2.97;;;;;;;11.81;67.31;100465.66;4993564;28;20058;-82
2021/05/28 00:48:35;;;;;;;8.50;3.08;;;;;;;11.79;67.16;100465.75;5001535;28;20054;-82
2021/05/28 00:51:03;;;;;;;7.15;2.65;;;;;;;11.75;67.31;100472.09;5012530;28;20054;-82
2021/05/28 00:53:31;;;;;;;8.70;2.92;;;;;;;11.74;67.39;100475.69;5013748;28;20069;-83
2021/05/28 00:56:00;;;;;;;4.63;2.67;;;;;;;11.71;67.33;100471.38;5013567;28;20104;-83
2021/05/28 00:58:26;;;;;;;4.65;2.55;;;;;;;11.70;67.61;100463.56;5013305;28;20111;-82
2021/05/28 01:00:53;;;;;;;7.63;2.75;;;;;;;11.68;67.45;100462.78;5011903;28;20061;-83
2021/05/28 01:03:20;;;;;;;8.50;3.10;;;;;;;11.66;67.38;100469.94;5013075;28;20054;-82
2021/05/28 01:05:47;;;;;;;9.82;2.65;;;;;;;11.64;67.44;100474.41;5012721;28;20120;-84
2021/05/28 01:08:13;;;;;;;7.22;2.88;;;;;;;11.60;67.55;100477.19;5011665;28;20112;-82
2021/05/28 01:10:40;;;;;;;7.82;3.08;;;;;;;11.60;67.74;100479.84;5013426;28;20100;-82
2021/05/28 01:13:10;;;;;;;7.85;3.03;;;;;;;11.56;67.66;100483.56;5013022;28;20046;-83
2021/05/28 01:15:38;;;;;;;7.50;2.60;;;;;;;11.56;67.54;100494.09;5012937;28;20115;-81
2021/05/28 01:18:05;;;;;;;7.38;2.92;;;;;;;11.53;67.61;100488.13;5012948;28;20491;-82
2021/05/28 01:21:19;;;;;;;8.02;3.17;;;;;;;11.46;67.85;100493.72;5012312;28;20105;-82
2021/05/28 01:23:46;;;;;;;8.15;3.30;;;;;;;11.50;67.58;100489.13;5007550;28;20054;-82
2021/05/28 01:26:13;;;;;;;11.75;3.17;;;;;;;11.47;67.71;100484.88;5011876;28;20569;-82
2021/05/28 01:28:40;;;;;;;5.97;2.95;;;;;;;11.45;67.76;100485.88;5011709;28;20050;-84
2021/05/28 01:31:08;;;;;;;9.60;3.15;;;;;;;11.42;67.96;100484.25;5014047;28;20053;-83
2021/05/28 01:33:41;;;;;;;6.65;3.05;;;;;;;11.39;67.94;100478.25;5012644;28;20117;-81
2021/05/28 01:36:09;;;;;;;10.18;3.65;;;;;;;11.38;67.90;100479.19;5012625;28;20112;-82
2021/05/28 01:38:36;;;;;;;7.15;3.38;;;;;;;11.36;68.04;100479.25;5013259;28;20049;-82
2021/05/28 01:41:04;;;;;;;5.60;2.92;;;;;;;11.34;67.97;100483.78;5012898;28;20103;-81
2021/05/28 01:43:31;;;;;;;6.93;3.03;;;;;;;11.33;68.02;100488.19;5012995;28;20083;-82
2021/05/28 01:45:58;;;;;;;7.30;3.70;;;;;;;11.30;67.87;100477.81;5011654;28;20093;-82
2021/05/28 01:48:25;;;;;;;9.75;3.90;;;;;;;11.28;68.14;100486.69;5011422;28;20107;-82
2021/05/28 01:50:52;;;;;;;12.00;4.07;;;;;;;11.25;68.04;100485.06;5012289;28;20050;-81
2021/05/28 01:53:26;;;;;;;6.85;3.83;;;;;;;11.20;68.33;100487.94;5015206;28;20507;-82
2021/05/28 01:55:54;;;;;;;7.85;4.13;;;;;;;11.20;68.16;100489.69;5016266;28;20050;-82
2021/05/28 01:58:24;;;;;;;12.63;4.40;;;;;;;11.16;68.35;100486.38;5016379;28;20054;-82
2021/05/28 02:00:55;;;;;;;9.93;4.53;;;;;;;11.16;68.58;100496.03;5015945;28;20046;-82
2021/05/28 02:07:09;;;;;;;14.15;5.53;;;;;;;11.15;69.38;100502.25;4993346;28;20089;-81
2021/05/28 02:09:56;;;;;;;26.08;6.88;;;;;;;11.20;69.00;100498.47;4980135;28;20384;-85
2021/05/28 02:12:23;;;;;;;30.85;8.07;;;;;;;11.21;69.01;100505.44;5017155;28;20053;-82
2021/05/28 02:14:50;;;;;;;20.52;7.45;;;;;;;11.20;69.14;100498.47;5017776;28;20049;-82
2021/05/28 02:17:17;;;;;;;55.60;8.73;;;;;;;11.21;69.17;100500.16;5016531;28;20108;-81
2021/05/28 02:19:43;;;;;;;11.07;7.80;;;;;;;11.21;69.34;100508.06;5013692;28;20124;-83
2021/05/28 02:22:11;;;;;;;18.33;8.63;;;;;;;11.24;69.44;100504.44;5016729;28;20050;-82
2021/05/28 02:24:38;;;;;;;22.88;8.93;;;;;;;11.25;69.37;100505.31;5016122;28;20053;-82
2021/05/28 02:27:05;;;;;;;46.88;9.23;;;;;;;11.27;69.28;100506.06;5015585;28;20095;-81
2021/05/28 02:29:31;;;;;;;17.05;8.52;;;;;;;11.27;69.33;100504.31;5015049;28;20046;-82
2021/05/28 02:31:58;;;;;;;14.10;8.65;;;;;;;11.28;69.18;100503.38;5017003;28;20104;-83
2021/05/28 02:34:24;;;;;;;23.90;9.07;;;;;;;11.28;69.11;100507.78;5015767;28;20050;-82
2021/05/28 02:36:51;;;;;;;16.67;8.63;;;;;;;11.26;69.23;100507.88;5016067;28;20092;-83
2021/05/28 02:39:17;;;;;;;22.02;8.68;;;;;;;11.27;69.19;100503.44;5016129;28;20050;-83
2021/05/28 02:41:44;;;;;;;20.17;8.18;;;;;;;11.28;69.32;100506.00;5015922;28;20054;-83
2021/05/28 02:44:11;;;;;;;37.08;8.93;;;;;;;11.28;69.22;100503.38;5016138;28;20104;-83
2021/05/28 02:46:37;;;;;;;10.80;8.38;;;;;;;11.29;69.30;100515.59;5015898;28;20478;-85
2021/05/28 02:49:04;;;;;;;19.42;9.02;;;;;;;11.29;69.39;100512.97;5015483;28;20463;-84
2021/05/28 02:51:31;;;;;;;30.65;9.38;;;;;;;11.30;69.25;100513.84;5009745;28;20054;-85
2021/05/28 02:53:57;;;;;;;20.85;8.55;;;;;;;11.30;69.21;100509.44;4977634;28;20563;-84
2021/05/28 02:56:24;;;;;;;27.95;8.65;;;;;;;11.30;69.24;100513.84;4997440;28;20058;-85
2021/05/28 02:58:50;;;;;;;12.30;8.10;;;;;;;11.30;69.14;100514.69;5014523;28;20168;-83
2021/05/28 03:01:17;;;;;;;17.65;9.23;;;;;;;11.30;69.11;100517.34;5015924;28;20092;-82
2021/05/28 03:03:43;;;;;;;32.15;7.45;;;;;;;11.32;69.11;100520.75;5014828;28;20503;-83
2021/05/28 03:06:10;;;;;;;10.40;6.93;;;;;;;11.30;69.03;100519.97;5014333;28;20393;-83
2021/05/28 03:08:37;;;;;;;9.02;7.28;;;;;;;11.29;68.89;100523.50;4998051;28;20108;-82
2021/05/28 03:11:04;;;;;;;11.48;7.35;;;;;;;11.29;69.07;100527.94;4996204;28;20058;-82
2021/05/28 03:13:30;;;;;;;12.32;7.35;;;;;;;11.28;69.15;100524.44;4996262;28;20054;-83
2021/05/28 03:15:57;;;;;;;9.75;7.07;;;;;;;11.28;68.83;100526.22;4996193;28;20054;-82
2021/05/28 03:18:25;;;;;;;11.88;7.63;;;;;;;11.28;68.99;100528.84;4995767;28;20436;-86
2021/05/28 03:21:18;;;;;;;11.48;7.47;;;;;;;11.28;69.14;100526.22;4999649;28;20046;-83
2021/05/28 03:23:44;;;;;;;8.93;6.38;;;;;;;11.28;69.29;100524.44;5015636;28;20064;-83
2021/05/28 03:26:11;;;;;;;19.08;7.43;;;;;;;11.29;69.07;100526.16;5015231;28;20053;-83
2021/05/28 03:28:38;;;;;;;12.20;6.15;;;;;;;11.29;69.08;100523.50;5014458;28;20458;-83
2021/05/28 03:31:04;;;;;;;12.52;7.80;;;;;;;11.30;69.19;100529.66;5015962;28;20408;-83
2021/05/28 03:33:31;;;;;;;16.02;8.05;;;;;;;11.31;68.93;100539.25;5014541;28;20049;-85
2021/05/28 03:35:58;;;;;;;11.00;7.63;;;;;;;11.31;68.92;100534.84;5016332;28;20061;-82
2021/05/28 03:38:26;;;;;;;11.20;6.72;;;;;;;11.32;69.12;100538.31;5000530;28;20114;-82
2021/05/28 03:40:52;;;;;;;15.02;8.68;;;;;;;11.33;69.09;100542.69;4995629;28;20093;-84
2021/05/28 03:43:19;;;;;;;13.50;8.30;;;;;;;11.33;68.91;100547.97;4995974;28;20053;-84
2021/05/28 03:45:46;;;;;;;11.40;7.68;;;;;;;11.34;68.98;100547.03;4994113;28;20093;-84
2021/05/28 03:48:12;;;;;;;13.18;7.95;;;;;;;11.34;68.83;100542.59;4995932;28;20096;-86
2021/05/28 03:50:39;;;;;;;11.75;7.03;;;;;;;11.34;68.61;100545.22;4995527;28;20108;-85
2021/05/28 03:53:05;;;;;;;11.55;8.25;;;;;;;11.34;68.72;100552.31;4993855;28;20054;-86
2021/05/28 03:55:32;;;;;;;12.93;8.20;;;;;;;11.32;68.62;100552.38;5011169;28;20104;-83
2021/05/28 03:57:59;;;;;;;14.68;8.55;;;;;;;11.31;68.63;100557.72;5014389;28;20459;-82
2021/05/28 04:00:26;;;;;;;15.68;8.68;;;;;;;11.29;68.55;100555.16;5015331;28;20506;-83
2021/05/28 04:02:53;;;;;;;27.52;10.13;;;;;;;11.28;68.65;100553.44;5014685;28;20057;-83
2021/05/28 04:05:20;;;;;;;10.90;8.77;;;;;;;11.27;68.77;100557.00;5014849;28;20050;-82
2021/05/28 04:07:47;;;;;;;12.40;8.13;;;;;;;11.25;68.83;100558.00;5013048;28;20119;-82
2021/05/28 04:10:14;;;;;;;13.10;8.63;;;;;;;11.23;68.91;100560.72;5007037;28;20463;-82
2021/05/28 04:12:41;;;;;;;12.95;9.00;;;;;;;11.24;69.02;100565.06;4993672;28;20057;-83
2021/05/28 04:15:10;;;;;;;14.35;8.70;;;;;;;11.24;69.03;100567.69;4993036;28;20062;-82
2021/05/28 04:17:37;;;;;;;11.05;8.25;;;;;;;11.26;68.92;100567.63;4993431;28;20081;-82
2021/05/28 04:20:04;;;;;;;13.05;8.93;;;;;;;11.26;69.17;100568.50;4993333;28;20097;-82
2021/05/28 04:22:31;;;;;;;13.27;9.80;;;;;;;11.29;69.16;100580.66;4993336;28;20051;-83
2021/05/28 04:24:58;;;;;;;15.85;8.85;;;;;;;11.30;69.15;100577.97;4993574;28;20058;-86
2021/05/28 04:27:25;;;;;;;13.85;9.30;;;;;;;11.33;69.18;100582.22;4993510;28;20054;-83
2021/05/28 04:29:51;;;;;;;14.52;9.45;;;;;;;11.36;69.18;100578.59;4993674;28;20058;-84
2021/05/28 04:32:18;;;;;;;15.63;8.55;;;;;;;11.38;68.84;100579.34;4993423;28;20061;-83
2021/05/28 04:34:44;;;;;;;14.07;9.05;;;;;;;11.38;68.53;100579.34;4992166;28;20562;-83
2021/05/28 04:37:11;;;;;;;10.85;8.32;;;;;;;11.38;68.38;100582.00;4991950;28;20050;-83
2021/05/28 04:39:37;;;;;;;12.75;8.32;;;;;;;11.36;68.32;100582.06;4993605;28;20054;-83
2021/05/28 04:42:04;;;;;;;12.98;8.77;;;;;;;11.34;68.33;100581.28;4993733;28;20058;-82
2021/05/28 04:44:31;;;;;;;12.60;8.38;;;;;;;11.32;68.57;100586.63;5010248;28;20495;-83
2021/05/28 04:46:58;;;;;;;13.00;9.35;;;;;;;11.31;68.62;100584.06;5012965;28;20060;-83
2021/05/28 04:49:24;;;;;;;16.70;10.40;;;;;;;11.30;68.48;100583.22;5012968;28;20061;-83
2021/05/28 04:51:51;;;;;;;19.85;11.73;;;;;;;11.31;68.62;100589.34;5013677;28;20042;-82
2021/05/28 04:54:18;;;;;;;16.80;9.63;;;;;;;11.32;68.67;100591.03;5013319;28;20049;-82
2021/05/28 04:56:45;;;;;;;13.50;9.90;;;;;;;11.32;68.92;100601.59;5013675;28;20434;-84
2021/05/28 04:59:11;;;;;;;14.82;10.90;;;;;;;11.33;69.17;100604.16;5010848;28;20077;-82
2021/05/28 05:01:38;;;;;;;16.85;11.43;;;;;;;11.38;69.49;100611.00;5012329;28;20495;-83
2021/05/28 05:04:05;;;;;;;15.48;10.90;;;;;;;11.43;69.56;100611.63;5011367;28;20092;-83
2021/05/28 05:06:31;;;;;;;15.32;10.23;;;;;;;11.50;69.48;100613.06;5011245;28;20054;-84
2021/05/28 05:08:58;;;;;;;18.42;12.40;;;;;;;11.55;69.61;100618.97;5012731;28;20085;-83
2021/05/28 05:11:25;;;;;;;18.35;12.57;;;;;;;11.61;69.47;100633.66;5012757;28;20049;-81
2021/05/28 05:13:51;;;;;;;20.40;12.70;;;;;;;11.65;69.30;100629.94;5012372;28;20444;-83
2021/05/28 05:16:18;;;;;;;15.93;12.13;;;;;;;11.69;69.07;100636.78;4999608;28;20058;-82
2021/05/28 05:18:45;;;;;;;20.05;14.63;;;;;;;11.72;68.97;100630.50;4991072;28;20057;-84
2021/05/28 05:21:12;;;;;;;18.92;13.95;;;;;;;11.73;68.44;100627.78;4991296;28;20461;-82
2021/05/28 05:23:40;;;;;;;21.65;15.20;;;;;;;11.74;68.23;100633.94;4992430;28;20081;-83
2021/05/28 05:26:07;;;;;;;22.02;15.80;;;;;;;11.74;68.49;100631.28;4992287;28;20051;-83
2021/05/28 05:28:34;;;;;;;26.75;17.98;;;;;;;11.75;68.51;100642.69;4992446;28;20062;-83
2021/05/28 05:31:03;;;;;;;30.33;19.90;;;;;;;11.73;68.52;100648.88;4992125;28;20050;-82
2021/05/28 05:33:30;;;;;;;28.95;20.02;;;;;;;11.76;68.59;100650.53;4972786;28;20058;-83
2021/05/28 05:35:56;;;;;;;25.70;18.48;;;;;;;11.78;68.97;100653.09;4972758;28;20079;-83
2021/05/28 05:38:23;;;;;;;31.20;20.35;;;;;;;11.82;68.89;100652.03;4971793;28;20058;-82
2021/05/28 05:40:49;;;;;;;29.85;21.35;;;;;;;11.85;68.83;100649.25;4972868;28;20050;-83
2021/05/28 05:43:16;;;;;;;29.15;20.75;;;;;;;11.91;69.02;100650.72;4972578;28;20062;-83
2021/05/28 05:45:43;;;;;;;27.30;20.38;;;;;;;11.94;68.96;100658.47;4972544;28;20055;-83
2021/05/28 05:48:09;;;;;;;27.88;19.17;;;;;;;11.97;68.92;100650.44;4978924;28;20067;-83
2021/05/28 05:50:36;;;;;;;25.40;18.25;;;;;;;12.03;69.10;100660.66;4992998;28;20050;-83
2021/05/28 05:53:02;;;;;;;26.30;19.58;;;;;;;12.08;69.04;100648.13;4993231;28;20403;-81
2021/05/28 05:55:29;;;;;;;28.10;20.13;;;;;;;12.15;68.80;100653.97;4992432;28;20472;-82
2021/05/28 05:57:56;;;;;;;23.15;19.00;;;;;;;12.21;68.81;100652.81;4990759;28;20096;-83
2021/05/28 06:00:23;;;;;;;24.50;19.17;;;;;;;12.26;68.61;100658.72;4991928;28;20515;-82
2021/05/28 06:02:49;;;;;;;21.17;16.45;;;;;;;12.30;68.65;100655.00;4990695;28;20065;-82
2021/05/28 06:05:18;;;;;;;18.35;14.70;;;;;;;12.36;68.59;100661.75;5003668;28;20050;-82
2021/05/28 06:07:46;;;;;;;15.75;14.05;;;;;;;12.40;68.32;100658.03;5011702;28;20081;-82
2021/05/28 06:10:13;;;;;;;19.08;14.77;;;;;;;12.45;67.98;100655.16;5011444;28;20049;-83
2021/05/28 06:12:40;;;;;;;17.27;13.68;;;;;;;12.46;67.96;100659.50;5011466;28;20054;-82
2021/05/28 06:15:08;;;;;;;17.88;13.18;;;;;;;12.47;67.71;100663.84;5011300;28;20049;-83
2021/05/28 06:17:34;;;;;;;15.75;13.15;;;;;;;12.47;67.77;100658.56;5011160;28;20057;-82
2021/05/28 06:20:02;;;;;;;15.98;13.35;;;;;;;12.47;67.59;100663.84;5011162;28;20056;-83
2021/05/28 06:22:31;;;;;;;17.60;12.50;;;;;;;12.46;67.62;100656.88;4972603;28;20055;-83
2021/05/28 06:24:58;;;;;;;15.98;12.15;;;;;;;12.47;67.88;100658.56;4971471;28;20341;-83
2021/05/28 06:27:25;;;;;;;15.88;12.00;;;;;;;12.47;67.76;100658.56;4972515;28;20085;-83
2021/05/28 06:29:51;;;;;;;13.15;11.57;;;;;;;12.49;67.63;100662.00;4972552;28;20102;-82
2021/05/28 06:32:18;;;;;;;15.82;10.85;;;;;;;12.48;67.57;100658.50;4971580;28;20164;-82
2021/05/28 06:34:44;;;;;;;13.48;10.85;;;;;;;12.51;67.63;100662.78;4971180;28;20117;-83
2021/05/28 06:37:11;;;;;;;12.70;10.02;;;;;;;12.54;67.77;100667.03;4984364;28;20050;-82
2021/05/28 06:39:37;;;;;;;13.27;10.35;;;;;;;12.58;67.66;100671.22;5014406;28;20486;-83
2021/05/28 06:42:05;;;;;;;12.35;9.88;;;;;;;12.61;67.62;100682.53;5014921;28;20058;-82
2021/05/28 06:44:31;;;;;;;9.82;8.80;;;;;;;12.64;67.46;100677.06;5014599;28;20049;-82
2021/05/28 06:46:58;;;;;;;10.98;9.38;;;;;;;12.66;66.88;100679.63;5014957;28;20458;-82
2021/05/28 06:49:24;;;;;;;12.57;9.63;;;;;;;12.67;66.94;100681.31;5014751;28;20499;-83
2021/05/28 06:51:51;;;;;;;15.00;11.25;;;;;;;12.67;67.16;100675.22;5015032;28;20096;-83
2021/05/28 06:54:18;;;;;;;12.60;10.38;;;;;;;12.68;66.87;100680.41;5014172;28;20458;-83
2021/05/28 06:56:45;;;;;;;14.43;11.93;;;;;;;12.70;67.02;100677.66;5000749;28;20108;-83
2021/05/28 06:59:12;;;;;;;18.23;14.55;;;;;;;12.71;66.79;100679.41;4994798;28;20057;-82
2021/05/28 07:01:38;;;;;;;18.63;14.98;;;;;;;12.70;66.77;100667.09;4994755;28;20050;-83
2021/05/28 07:04:05;;;;;;;21.05;16.38;;;;;;;12.70;66.78;100664.47;4995235;28;20069;-83
2021/05/28 07:06:33;;;;;;;20.02;16.08;;;;;;;12.70;66.94;100680.31;4995223;28;20058;-81
2021/05/28 07:08:59;;;;;;;22.85;17.23;;;;;;;12.72;67.15;100683.75;4994919;28;20058;-82
2021/05/28 07:11:26;;;;;;;23.77;19.08;;;;;;;12.72;67.32;100687.25;5012499;28;20046;-83
2021/05/28 07:13:53;;;;;;;24.80;19.15;;;;;;;12.74;67.08;100690.66;5014243;28;20109;-82
2021/05/28 07:16:20;;;;;;;23.80;18.50;;;;;;;12.76;67.28;100696.69;5014147;28;20096;-84
2021/05/28 07:18:48;;;;;;;22.77;18.40;;;;;;;12.79;67.16;100694.84;5014251;28;20053;-83
2021/05/28 07:21:15;;;;;;;19.95;15.00;;;;;;;12.81;67.09;100688.56;5014293;28;20050;-83
2021/05/28 07:23:41;;;;;;;24.33;15.52;;;;;;;12.84;66.93;100685.75;5014316;28;20057;-81
2021/05/28 07:26:08;;;;;;;17.83;15.05;;;;;;;12.88;67.05;100695.25;5009744;28;20050;-83
2021/05/28 07:28:35;;;;;;;19.40;15.30;;;;;;;12.92;67.25;100684.50;4994914;28;20054;-82
2021/05/28 07:31:01;;;;;;;21.70;15.18;;;;;;;12.96;67.01;100692.19;4994240;28;20050;-82
2021/05/28 07:33:28;;;;;;;22.42;16.90;;;;;;;13.01;66.88;100686.69;4994302;28;20420;-82
2021/05/28 07:35:55;;;;;;;20.52;16.00;;;;;;;13.05;67.17;100690.00;4993126;28;20415;-82
2021/05/28 07:38:21;;;;;;;20.48;16.27;;;;;;;13.12;67.03;100702.81;4994116;28;20471;-82
2021/05/28 07:40:48;;;;;;;19.00;16.30;;;;;;;13.18;67.35;100695.47;4992664;28;20053;-82
2021/05/28 07:43:15;;;;;;;19.48;17.00;;;;;;;13.24;67.31;100700.47;5003706;28;20404;-84
2021/05/28 07:45:42;;;;;;;20.33;16.88;;;;;;;13.31;67.28;100704.50;5013522;28;20053;-82
2021/05/28 07:48:08;;;;;;;24.00;19.10;;;;;;;13.37;67.40;100706.81;5013924;28;20054;-83
2021/05/28 07:50:58;;;;;;;34.35;22.85;;;;;;;13.46;67.48;100704.59;5013334;28;20427;-83
2021/05/28 07:53:23;;;;;;;27.30;21.52;;;;;;;13.55;67.20;100699.72;5013229;28;20451;-82
2021/05/28 07:55:50;;;;;;;23.20;20.35;;;;;;;13.62;67.17;100708.16;4993442;28;20050;-83
2021/05/28 07:58:17;;;;;;;29.63;22.90;;;;;;;13.68;67.29;100710.47;4998085;28;20051;-83
2021/05/28 08:00:44;;;;;;;27.92;23.02;;;;;;;13.77;67.16;100705.59;4995179;28;20050;-82
2021/05/28 08:03:11;;;;;;;28.88;23.55;;;;;;;13.85;67.45;100715.75;4994023;28;20142;-83
2021/05/28 08:05:37;;;;;;;30.85;25.77;;;;;;;13.93;67.14;100714.41;4994356;28;20042;-83
2021/05/28 08:08:09;;;;;;;29.80;24.75;;;;;;;14.01;66.80;100715.75;4993690;28;20050;-83
2021/05/28 08:10:35;;;;;;;31.90;24.25;;;;;;;14.10;67.10;100719.69;4992601;28;20516;-83
2021/05/28 08:13:03;;;;;;;28.45;23.13;;;;;;;14.18;67.04;100717.47;4993356;28;20416;-83
2021/05/28 08:15:31;;;;;;;29.10;21.83;;;;;;;14.27;66.79;100721.34;4993323;28;20105;-83
2021/05/28 08:17:58;;;;;;;26.50;20.92;;;;;;;14.34;66.96;100722.72;4993211;28;20053;-83
2021/05/28 08:20:25;;;;;;;23.77;19.42;;;;;;;14.42;66.55;100720.50;5000973;28;20057;-84
2021/05/28 08:22:53;;;;;;;22.58;19.08;;;;;;;14.52;66.08;100715.53;5012996;28;20385;-83
2021/05/28 08:25:19;;;;;;;25.05;18.80;;;;;;;14.59;66.54;100708.91;5012500;28;20100;-83
2021/05/28 08:27:46;;;;;;;21.42;18.17;;;;;;;14.67;66.56;100712.91;5012640;28;20408;-83
2021/05/28 08:30:14;;;;;;;22.35;18.20;;;;;;;14.75;66.42;100704.50;5012548;28;20466;-82
2021/05/28 08:32:41;;;;;;;22.45;17.10;;;;;;;14.83;66.41;100710.22;5012377;28;20045;-83
2021/05/28 08:35:09;;;;;;;18.55;16.10;;;;;;;14.90;66.36;100714.22;5012549;28;20077;-83
2021/05/28 08:37:35;;;;;;;21.67;17.05;;;;;;;15.01;66.04;100718.00;5009053;28;20057;-83
2021/05/28 08:40:04;;;;;;;22.60;17.45;;;;;;;15.11;66.12;100711.22;5012792;28;20068;-83
2021/05/28 08:42:31;;;;;;;17.73;15.25;;;;;;;15.21;65.86;100714.16;5012227;28;20050;-83
2021/05/28 08:44:59;;;;;;;17.63;15.85;;;;;;;15.31;65.32;100714.44;5012329;28;20050;-83
2021/05/28 08:47:27;;;;;;;15.95;13.95;;;;;;;15.40;65.56;100710.38;5010890;28;20153;-82
2021/05/28 08:49:57;;;;;;;16.58;14.63;;;;;;;15.49;64.29;100713.31;5012330;28;20503;-83
2021/05/28 08:52:24;;;;;;;16.63;14.82;;;;;;;15.59;64.94;100712.75;5012564;28;20084;-83
2021/05/28 08:54:50;;;;;;;17.05;13.57;;;;;;;15.68;65.08;100714.81;5011999;28;20157;-82
2021/05/28 08:57:19;;;;;;;14.80;12.40;;;;;;;15.79;65.56;100713.25;5012059;28;20046;-83
2021/05/28 08:59:46;;;;;;;14.68;10.80;;;;;;;15.88;64.86;100713.53;5010925;28;20062;-83
2021/05/28 09:02:35;;;;;;;11.13;9.85;;;;;;;15.98;63.41;100718.28;5011639;28;20042;-83
2021/05/28 09:05:20;;;;;;;11.77;9.98;;;;;;;16.11;64.07;100713.03;5010878;28;20133;-84
2021/05/28 09:07:59;;;;;;;14.48;10.98;;;;;;;16.25;63.28;100707.66;5011184;28;20050;-83
2021/05/28 09:10:37;;;;;;;12.57;10.65;;;;;;;16.36;62.86;100706.09;4999813;28;20109;-83
2021/05/28 09:13:21;;;;;;;15.57;11.27;;;;;;;16.49;62.34;100706.13;4992834;28;20061;-83
2021/05/28 09:16:09;;;;;;;11.75;9.98;;;;;;;16.61;62.93;100702.66;4992528;28;20073;-82
2021/05/28 09:18:48;;;;;;;11.25;9.73;;;;;;;16.72;62.69;100703.72;4990383;28;20050;-82
2021/05/28 09:21:20;;;;;;;9.68;8.60;;;;;;;16.82;62.82;100696.81;4992496;28;20053;-82
2021/05/28 09:23:46;;;;;;;10.55;8.68;;;;;;;16.94;63.06;100708.44;4992847;28;20050;-83
2021/05/28 09:26:14;;;;;;;10.98;8.50;;;;;;;17.03;62.74;100704.28;4998812;28;20080;-83
2021/05/28 09:28:46;;;;;;;9.77;8.52;;;;;;;17.11;62.41;100709.09;5012037;28;20058;-83
2021/05/28 09:31:16;;;;;;;9.27;7.55;;;;;;;17.21;62.32;100698.66;5011883;28;20500;-82
2021/05/28 09:33:46;;;;;;;12.70;8.75;;;;;;;17.30;62.28;100704.19;5012505;28;20057;-83
2021/05/28 09:36:18;;;;;;;10.95;9.10;;;;;;;17.38;62.65;100708.97;5012029;28;20458;-83
2021/05/28 09:39:06;;;;;;;10.13;9.03;;;;;;;17.49;62.69;100708.22;5012102;28;20571;-83
2021/05/28 09:41:42;;;;;;;9.35;8.30;;;;;;;17.61;62.22;100701.19;5010350;28;20304;-83
2021/05/28 09:44:11;;;;;;;9.55;7.90;;;;;;;17.76;62.99;100717.84;4973089;28;20055;-83
2021/05/28 09:46:59;;;;;;;9.63;8.63;;;;;;;17.87;62.44;100710.91;4972918;28;20420;-83
2021/05/28 09:49:28;;;;;;;10.98;8.07;;;;;;;17.99;61.84;100718.00;4972761;28;20101;-84
2021/05/28 09:52:14;;;;;;;9.02;8.13;;;;;;;18.07;60.13;100720.97;4971307;28;20047;-83
2021/05/28 09:55:02;;;;;;;9.05;8.13;;;;;;;18.19;61.70;100721.03;4972870;28;20064;-84
2021/05/28 09:57:31;;;;;;;10.85;9.10;;;;;;;18.31;61.76;100716.59;4972720;28;20106;-83
2021/05/28 09:59:59;;;;;;;11.73;10.13;;;;;;;18.42;62.81;100721.97;5000727;28;20057;-83
2021/05/28 10:02:43;;;;;;;10.77;9.23;;;;;;;18.56;62.26;100725.44;5012609;28;20058;-84
2021/05/28 10:05:12;;;;;;;11.93;8.32;;;;;;;18.68;61.74;100718.31;5011704;28;20057;-84
2021/05/28 10:07:40;;;;;;;9.00;8.10;;;;;;;18.79;60.90;100725.50;5010478;28;20056;-83
2021/05/28 10:10:09;;;;;;;9.45;8.52;;;;;;;18.88;60.52;100722.97;5011554;28;20050;-83
2021/05/28 10:12:36;;;;;;;9.88;8.88;;;;;;;18.94;60.00;100720.78;5011103;28;20068;-83
2021/05/28 10:15:07;;;;;;;10.00;8.68;;;;;;;18.97;59.14;100716.09;5006722;28;20050;-83
2021/05/28 10:17:35;;;;;;;10.07;8.77;;;;;;;19.01;59.74;100709.56;4995408;28;20518;-83
2021/05/28 10:20:04;;;;;;;9.52;7.70;;;;;;;19.04;58.06;100711.13;4995463;28;20054;-84
2021/05/28 10:22:32;;;;;;;9.40;8.40;;;;;;;19.09;58.94;100714.31;4994922;28;20054;-83
2021/05/28 10:25:01;;;;;;;10.07;8.95;;;;;;;19.12;60.17;100706.06;4995306;28;20054;-83
2021/05/28 10:27:27;;;;;;;12.73;9.02;;;;;;;19.19;60.23;100708.25;4995172;28;20050;-83
2021/05/28 10:29:54;;;;;;;10.38;8.88;;;;;;;19.28;61.22;100712.84;4995270;28;20467;-83
2021/05/28 10:32:22;;;;;;;12.23;8.88;;;;;;;19.42;60.93;100702.91;4996557;28;20046;-84
2021/05/28 10:35:09;;;;;;;10.02;8.93;;;;;;;19.57;60.55;100704.38;4995060;28;20058;-83
2021/05/28 10:37:42;;;;;;;10.48;8.52;;;;;;;19.81;59.67;100708.69;4993766;28;20054;-84
2021/05/28 10:40:28;;;;;;;9.18;8.23;;;;;;;20.01;59.30;100715.13;4993891;28;20058;-83
2021/05/28 10:42:59;;;;;;;9.38;7.60;;;;;;;20.24;59.49;100714.19;4994915;28;20065;-84
2021/05/28 10:45:56;;;;;;;7.38;6.68;;;;;;;20.31;56.89;100707.38;4998099;28;20142;-84
2021/05/28 10:51:07;;;;;;;7.47;6.72;;;;;;;20.76;59.83;100706.28;4997817;28;20050;-84
2021/05/28 10:53:35;;;;;;;8.02;6.82;;;;;;;21.16;60.51;100693.16;4998544;28;20054;-83
2021/05/28 10:56:08;;;;;;;7.15;6.45;;;;;;;21.65;59.17;100687.13;5003605;28;20073;-84
2021/05/28 10:59:16;;;;;;;7.38;6.65;;;;;;;22.25;59.17;100694.28;5014856;28;20088;-84
2021/05/28 11:01:52;;;;;;;7.53;6.20;;;;;;;22.79;56.47;100691.13;4972262;28;20054;-84
2021/05/28 11:04:24;;;;;;;7.15;6.43;;;;;;;23.15;53.79;100687.78;5010648;28;20078;-85
2021/05/28 11:07:00;;;;;;;5.60;4.97;;;;;;;23.37;53.20;100689.28;5013982;28;20404;-84
2021/05/28 11:09:38;;;;;;;6.80;5.72;;;;;;;23.58;53.34;100685.47;5013327;28;20145;-84
2021/05/28 11:12:26;;;;;;;8.38;5.90;;;;;;;23.68;51.31;100693.50;5013894;28;20053;-84
2021/05/28 11:15:08;;;;;;;6.07;4.20;;;;;;;23.65;50.53;100688.41;4974703;28;20058;-84
2021/05/28 11:18:01;;;;;;;4.35;3.92;;;;;;;23.49;49.37;100691.75;4973710;28;20066;-84
2021/05/28 11:20:40;;;;;;;6.72;4.43;;;;;;;23.42;51.36;100675.38;4985190;28;20050;-84
2021/05/28 11:23:23;;;;;;;6.53;4.93;;;;;;;23.40;49.95;100682.75;4992604;28;20054;-84
2021/05/28 11:25:52;;;;;;;6.20;4.60;;;;;;;23.40;50.74;100672.00;4994094;28;20571;-84
2021/05/28 11:28:19;;;;;;;3.75;3.00;;;;;;;23.27;49.62;100670.50;4993917;28;20108;-84
2021/05/28 11:30:49;;;;;;;3.33;2.50;;;;;;;23.20;49.96;100672.06;4994129;28;20058;-83
2021/05/28 11:33:40;;;;;;;6.30;2.63;;;;;;;23.27;51.75;100677.69;4994034;28;20062;-84